x

9410840 - Santa Monica Pier (icac1) Weather Station

8:12 - Fri 9th Dec 2016 All times are PST. -8 hours from GMT.

  • Wind
    5mph, 7mph gusts
  • Sea Temp 60°f
  • Aire Temp 59°f
  • Sea Pressure 1021.6mb
  • 9410840 - Santa Monica Pier
  • 9410840 - Santa Monica Pier

More Historic Weather Station data

Upgrade to MSW Pro to gain access to the past 30 days of data for over 8000 Wavebouys and Weather Stations around the globe.

Join Pro

Comparision Forecast

View Surf forecast
   
vie 12/09 8:12 5 7 mph 1021.6mb 60f 59f
8:06 6 8 mph 1021.5mb 60f 59f
8:00 5 8 mph 1021.5mb 60f 59f
7:54 6 7 mph 1021.4mb 60f 59f
7:48 6 8 mph - - -
7:42 6 8 mph 1021.3mb 60f 59f
7:36 7 9 mph 1021.3mb 60f 59f
7:30 7 8 mph 1021.4mb 60f 59f
7:24 5 8 mph 1021.4mb 60f 59f
7:18 6 8 mph 1021.3mb 60f 59f
7:12 6 7 mph 1021.3mb 60f 59f
7:06 5 7 mph 1021.5mb 60f 59f
7:00 7 9 mph 1021.5mb 60f 59f
6:54 7 8 mph 1021.5mb 60f 59f
6:48 5 7 mph 1021.4mb 60f 59f
6:42 6
mph
1021.4mb 60f 59f
6:36 6 8 mph 1021.3mb 60f 59f
6:30 6
mph
1021.2mb 60f 59f
6:24 5 6 mph 1021.2mb 60f 59f
6:18 5 6 mph 1021.3mb 60f 59f
6:12 6
mph
1021.4mb 60f 59f
6:06 5 6 mph 1021.4mb 60f 59f
6:00 5 6 mph 1021.2mb 60f 59f
5:54 5
mph
1021.3mb 60f 60f
5:48 3 5 mph 1021.3mb 60f 60f
5:42 3 5 mph 1021.3mb 60f 60f
5:36 3 5 mph 1021.2mb 60f 60f
5:30 5 6 mph 1021.2mb 60f 60f
5:24 5 6 mph 1021mb 60f 60f
5:18 3
mph
1021.2mb 60f 60f
5:12 2
mph
1021.1mb 60f 60f
5:06 2
mph
1021.1mb 60f 60f
5:00 2
mph
1021mb 60f 60f
4:54 1 2 mph 1021.1mb 60f 60f
4:48 2 3 mph 1021mb 60f 60f
4:42 1
mph
1021.1mb 60f 60f
4:36 1 2 mph 1021.1mb 60f 60f
4:30 1 3 mph 1021.1mb 60f 60f
4:24 2 5 mph 1021.2mb 60f 60f
4:18 2 5 mph 1021.2mb 60f 60f
4:12 1 2 mph 1021.3mb 60f 60f
4:06 2 3 mph 1021.4mb 60f 60f
4:00 3 5 mph 1021.5mb 60f 60f
3:54 5 6 mph 1021.4mb 60f 60f
3:48 5
mph
1021.5mb 60f -
3:42 3 5 mph 1021.4mb 60f 61f
3:36 3
mph
1021.4mb 60f 61f
3:30 3 5 mph 1021.5mb 60f 61f
3:24 5
mph
1021.6mb 60f 61f
3:18 3 5 mph 1021.7mb 60f 61f
3:12 3 6 mph 1021.8mb 60f 61f
3:06 5 6 mph 1021.8mb 60f 61f
3:00 5
mph
1021.9mb 60f 61f
2:54 3 5 mph 1022mb 60f 61f
2:48 3 5 mph - - -
2:42 2 5 mph 1022.1mb 60f 60f
2:36 5
mph
1022.2mb 60f 60f
2:30 6 7 mph 1022.2mb 60f 60f
2:24 5 6 mph 1022.3mb 60f 60f
2:18 5 6 mph 1022.4mb 60f 60f
2:12 5 6 mph 1022.4mb 60f 60f
2:06 3 6 mph 1022.5mb 60f 60f
2:00 6
mph
1022.5mb 60f 60f
1:54 5 6 mph 1022.5mb 60f 61f
1:48 5
mph
1022.4mb 60f 61f
1:42 5
mph
1022.5mb 60f 61f
1:36 5
mph
1022.5mb 60f 61f
1:30 3 5 mph 1022.6mb 60f 61f
1:24 3 5 mph 1022.5mb 60f 61f
1:18 3
mph
1022.5mb 60f 61f
1:12 2 3 mph 1022.6mb 60f 62f
1:06 1 3 mph 1022.6mb 60f 61f
1:00 2 3 mph 1022.6mb 60f 60f
12:54 2 3 mph 1022.7mb 60f 60f
12:48 3
mph
1022.9mb 60f 60f
12:42 3
mph
1023mb 60f 60f
12:36 3
mph
1023.2mb 60f 59f
12:30 3
mph
1023.3mb 60f 59f
12:24 3 5 mph 1023.4mb 60f 59f
12:18 5
mph
1023.5mb 60f 59f
12:12 5
mph
1023.6mb 60f 59f
12:06 3 5 mph 1023.8mb 60f 59f
12:00 5 7 mph 1024mb 60f 59f
11:54 7 8 mph 1024.2mb 60f 59f
11:48 7
mph
1024.2mb 60f 59f
11:42 7 8 mph 1024.2mb 60f 59f
11:36 7 8 mph 1024.3mb 60f 59f
11:30 5 6 mph 1024.4mb 60f 60f
11:24 5 6 mph 1024.4mb 60f 59f
11:18 5 6 mph 1024.6mb 60f 60f
11:12 5 6 mph 1024.7mb 60f 59f
11:06 5
mph
1024.7mb 60f 60f
11:00 2 3 mph 1024.7mb 60f 60f
10:54 1 2 mph 1024.8mb 60f 60f
10:48 2
mph
1024.8mb 60f 61f
10:42  -  1 mph 1025mb 60f 60f
10:36  -  2 mph 1025.1mb 60f 60f
10:30 1
mph
1025mb 60f 59f
10:24  -  1 mph 1025.1mb 60f 59f
10:18  -  1 mph 1025.3mb 60f 60f
10:12  -  2 mph 1025.3mb 60f 59f
10:06 2 3 mph 1025.5mb 60f 59f
10:00 2
mph
1025.5mb 60f 59f
9:54 1 3 mph 1025.4mb 60f 59f
9:48 3
mph
1025.4mb 60f 60f
9:42 2 3 mph 1025.4mb 60f 59f
9:36 1 2 mph 1025.3mb 60f 59f
9:30  -  1 mph 1025.4mb 60f 59f
9:24  -  5 mph 1025.4mb 60f 59f
9:18 3 5 mph 1025.3mb 60f 58f
9:12 5 6 mph 1025.3mb 60f 58f
9:06 5 6 mph 1025.3mb 60f 58f
9:00 3 5 mph 1025.3mb 60f 58f
8:54 3 5 mph 1025.2mb 60f 58f
8:48 5
mph
1025.2mb 60f 57f
8:42 5 6 mph 1025.1mb 60f 57f
8:36 5
mph
1025mb 60f 57f
8:30 3 5 mph 1025mb 60f 57f
8:24 5
mph
1024.9mb 60f 57f
8:18 3 5 mph 1025mb 60f 56f
8:12 2 3 mph 1025.1mb 60f 56f
8:06  -  2 mph 1025.1mb 60f 57f
8:00  -  1 mph 1025.1mb 60f 56f
7:54  -  2 mph 1025mb 60f 56f
7:48  -  1 mph 1024.9mb 60f 56f
7:42 1 2 mph 1024.9mb 60f 56f
7:36  -  2 mph 1024.7mb 60f 56f
7:30 1 2 mph 1024.7mb 60f 55f
7:24  -  2 mph 1024.6mb 60f 55f
7:18 1 3 mph 1024.6mb 60f 55f
7:12 2 3 mph 1024.6mb 60f 55f
7:06 3 6 mph 1024.5mb 60f 55f
7:00 3 5 mph 1024.5mb 60f 55f
6:54 3 6 mph 1024.4mb 60f 55f
6:48 5 7 mph 1024.4mb 60f 55f
6:42 6 8 mph 1024.4mb 60f 55f
6:36 6 8 mph 1024.3mb 60f 55f
6:30 5 7 mph 1024.3mb 60f 55f
6:24 5 6 mph 1024.3mb 60f 55f
6:18 3 7 mph 1024.3mb 60f 55f
6:12 6 7 mph 1024.4mb 60f 55f
6:06 6 7 mph 1024.4mb 60f 55f
6:00 5 7 mph 1024.4mb 60f 55f
5:54 5 7 mph 1024.4mb 60f 55f
5:48 6 8 mph 1024.4mb 60f 55f
5:42 6 8 mph 1024.3mb 60f 55f
5:36 6 8 mph 1024.4mb 60f 55f
5:30 5 7 mph 1024.3mb 60f 55f
5:24 6 7 mph 1024.3mb 60f 55f
5:18 5 6 mph 1024.2mb 60f 55f
5:12 5 6 mph 1024.2mb 60f 55f
5:06 6 7 mph 1024.2mb 60f 55f
5:00 5 7 mph 1024.2mb 60f 55f
4:54 5 6 mph 1024.3mb 60f 55f
4:48 3 7 mph 1024.3mb 60f 55f
4:42 5 6 mph 1024.3mb 60f 55f
4:36 6
mph
1024.3mb 60f 55f
4:30 3 6 mph 1024.3mb 60f 55f
4:24 3 5 mph 1024.3mb 60f 55f
4:18 5 6 mph 1024.3mb 60f 55f
4:12 6
mph
1024.3mb 60f 55f
4:06 2 6 mph 1024.4mb 60f 55f
4:00 5
mph
1024.4mb 60f 55f
3:54 6
mph
1024.4mb 60f 55f
3:48 3 6 mph 1024.5mb 60f 55f
3:42 5 6 mph 1024.6mb 60f 55f
3:36 6
mph
1024.6mb 60f 55f
3:30 5 6 mph 1024.7mb 60f 55f
3:24 5 7 mph 1024.8mb 60f 55f
3:18 6 7 mph 1024.9mb 60f 55f
3:12 3 7 mph 1024.9mb 60f 56f
3:06 6 7 mph 1024.9mb 60f 56f
3:00 5 7 mph 1025mb 60f 56f
2:54 6 8 mph 1024.9mb 60f 56f
2:48 6 7 mph 1024.9mb 60f 55f
2:42 6 7 mph 1025mb 60f 55f
2:36 6 7 mph 1025mb 60f 55f
2:30 6 7 mph 1025mb 60f 55f
2:24 6 7 mph 1024.9mb 60f 55f
2:18 5 7 mph 1025mb 60f 56f
2:12 6 7 mph 1025mb 60f 56f
2:06 6 7 mph 1024.9mb 60f 56f
2:00 6 7 mph 1024.9mb 60f 56f
1:54 7
mph
1024.8mb 60f 56f
1:48 6 7 mph 1024.8mb 60f 56f
1:42 6 7 mph 1025mb 60f 56f
1:36 6 7 mph 1024.9mb 60f 56f
1:30 5 7 mph 1024.9mb 60f 57f
1:24 6 7 mph 1024.9mb 60f 57f
1:18 6 7 mph 1024.9mb 60f 57f
1:12 6 7 mph 1024.8mb 60f 56f
1:06 6 7 mph 1024.8mb 60f 56f
1:00 7 8 mph 1024.7mb 60f 56f
12:54 6
mph
1024.6mb 60f 56f
12:48 5 6 mph 1024.6mb 60f 56f
12:42 5 7 mph 1024.6mb 60f 57f
12:36 3 5 mph 1024.6mb 60f 57f
12:30 3 6 mph 1024.7mb 60f 57f
12:24 3 5 mph 1024.7mb 60f 57f
12:18 5
mph
1024.7mb 60f 58f
12:12 2 3 mph 1024.6mb 60f 58f
12:06 2
mph
1024.7mb 60f 58f
12:00 2
mph
1024.7mb 60f 58f
jue 12/08 11:54 2
mph
1024.7mb 60f 58f
11:48 2 3 mph 1024.8mb 60f 58f
11:42 3
mph
1024.8mb 60f 58f
11:36  -  mph 1024.9mb 60f 58f
11:30  -  mph 1024.9mb 60f 58f
11:24  -  1 mph 1025mb 60f 58f
11:18 1 2 mph 1025.1mb 60f 58f
11:12 2 3 mph 1025.1mb 60f 58f
11:06 2
mph
1025.1mb 60f 58f
11:00 1 2 mph 1025.1mb 60f 59f
10:54  -  1 mph 1025mb 60f 59f
10:48  -  1 mph 1024.9mb 60f 58f
10:42  -  1 mph 1024.8mb 60f 58f
10:36 1 2 mph 1024.8mb 60f 58f
10:30 2
mph
1024.7mb 60f 58f
10:24 2 3 mph 1024.7mb 60f 58f
10:18 1 2 mph 1024.7mb 60f 59f
10:12 1 2 mph 1024.7mb 60f 59f
10:06 1 2 mph 1024.7mb 60f 59f
10:00 2
mph
1024.7mb 60f 58f
9:54 2 3 mph 1024.6mb 60f 59f
9:48 2 3 mph 1024.7mb 60f 59f
9:42 2 3 mph 1024.6mb - -
9:36 1 3 mph 1024.7mb - -
9:30 2 3 mph 1024.7mb 60f 59f
9:24  -  1 mph 1024.7mb 60f 59f
9:18  -  1 mph 1024.7mb 60f 59f
9:12  -  1 mph 1024.7mb 60f 59f
9:06  -  3 mph 1024.7mb 60f 59f
9:00  -  2 mph 1024.6mb 60f 59f
8:54 1 2 mph 1024.6mb 60f 59f
8:48 1 2 mph 1024.5mb 60f 59f
8:42  -  1 mph 1024.5mb 60f 59f
8:36 1 3 mph 1024.5mb 60f 59f
8:30 3 5 mph 1024.6mb 60f 59f
8:24 2 3 mph 1024.5mb 60f 59f
8:18 2 5 mph 1024.4mb 60f 59f
8:12 3 6 mph 1024.3mb 60f 59f
8:06 3 5 mph 1024.2mb 60f 59f
8:00 5 6 mph 1024.2mb 60f 59f
7:54 2
mph
1024.2mb 60f 60f
7:48 3 5 mph 1024.1mb 60f 60f
7:42 2 5 mph 1024.1mb 60f 59f
7:36 5
mph
1024.1mb 60f 60f
7:30 3
mph
1024mb 60f 59f
7:24 2 3 mph 1024mb 60f 59f
7:18 3
mph
1024mb 61f 59f
7:12 2 5 mph 1023.9mb 60f 59f
7:06 3 7 mph 1023.9mb 61f 60f
7:00 7 10 mph 1023.9mb 61f 60f
6:54 8 10 mph 1023.8mb 61f 60f
6:48 7 9 mph 1023.8mb 61f 61f
6:42 2 3 mph 1023.8mb 61f 60f
6:36 3 6 mph 1023.8mb 61f 59f
6:30 6 7 mph 1023.7mb 61f 59f
6:24 2 3 mph 1023.6mb 61f 60f
6:18 2 3 mph 1023.5mb 61f 59f
6:12 2
mph
1023.4mb 61f 59f
6:06 2
mph
1023.3mb 61f 60f
6:00 1 3 mph 1023.3mb 61f 60f
5:54 2 3 mph 1023.2mb 61f 60f
5:48 3 5 mph 1023.3mb 61f 60f
5:42 2 3 mph 1023.2mb 61f 60f
5:36 3 5 mph 1023.2mb 61f 60f
5:30 5 6 mph 1023.1mb 61f 59f
5:24 3 5 mph 1023.1mb 61f 60f
5:18 3 8 mph 1022.9mb 61f 60f
5:12 5 6 mph 1022.9mb 60f 60f
5:06 6 9 mph 1022.9mb 60f 60f
5:00 9 10 mph 1022.9mb 60f 60f
4:54 10 11 mph 1023mb 60f 60f
4:48 9 11 mph 1023.1mb 60f 60f
4:42 9 11 mph 1023.1mb 60f 60f
4:36 9 13 mph 1023.2mb 60f 60f
4:30 11 14 mph 1023.2mb 60f 60f
4:24 11 14 mph 1023.2mb 60f 60f
4:18 11 14 mph 1023.1mb 60f 60f
4:12 13 15 mph 1023.1mb 61f 60f
4:06 15 16 mph 1023.1mb 61f 60f
4:00 15 17 mph 1023.2mb 61f 60f
3:54 15 17 mph 1023.2mb 61f 60f
3:48 14 15 mph - - -
3:42 14 15 mph 1023.3mb 61f 60f
3:36 11 15 mph 1023.3mb 61f 60f
3:30 13 14 mph 1023.3mb 61f 60f
3:24 14 15 mph 1023.2mb 61f 60f
3:18 13 14 mph 1023.2mb 60f 60f
3:12 11 14 mph 1023.2mb 60f 60f
3:06 10 11 mph 1023.2mb 60f 60f
3:00 10 13 mph 1023.2mb 60f -
2:54 7 10 mph 1023.2mb 61f 61f
2:48 9 11 mph - - -
2:42 8 10 mph 1023.2mb 61f 61f
2:36 11 13 mph 1023mb 61f 60f
2:30 9 11 mph 1023mb 61f 60f
2:24 8 10 mph 1023.1mb 61f 60f
2:18 9 10 mph 1023.1mb 61f 60f
2:12 9 11 mph 1023.1mb 61f 60f
2:06 10 11 mph 1023.1mb 60f 60f
2:00 10 11 mph 1023.1mb 60f 60f
1:54 9 11 mph 1023.1mb 60f 60f
1:48 10 11 mph 1023.2mb 60f 60f
1:42 9 10 mph 1023.2mb 60f 60f
1:36 9 10 mph 1023.3mb 60f 60f
1:30 9 10 mph 1023.4mb 60f 60f
1:24 9 11 mph 1023.4mb 60f 60f
1:18 10 11 mph 1023.5mb 60f 60f
1:12 10 13 mph 1023.6mb 60f 59f
1:06 11
mph
1023.7mb 60f 59f
1:00 10 11 mph 1023.7mb 60f 59f
12:54 9 10 mph 1023.8mb 60f 60f
12:48 9 10 mph 1023.9mb 60f 59f
12:42 9 11 mph 1024mb 60f 59f
12:36 8 10 mph 1024mb 60f 59f
12:30 9 10 mph 1024.1mb 60f 59f
12:24 8 9 mph 1024.2mb 60f 59f
12:18 8 9 mph 1024.3mb 60f 59f
12:12 8 10 mph 1024.3mb 60f 59f
12:06 9 10 mph 1024.3mb 60f 59f
12:00 8 9 mph 1024.2mb 60f 59f
11:54 8 9 mph 1024.2mb 60f 59f
11:48 8 9 mph 1024.2mb 60f 59f
11:42 8
mph
1024.1mb 60f 59f
11:36 7
mph
1024.2mb 60f 59f
11:30 6 7 mph 1024.3mb 60f 59f
11:24 6 7 mph 1024.2mb 60f 59f
11:18 6 7 mph 1024.2mb 60f 60f
11:12 5 6 mph 1024.3mb 60f 60f
11:06 5
mph
1024.5mb 60f 60f
11:00 5
mph
1024.6mb 60f 60f
10:54 3 5 mph 1024.7mb 60f 60f
10:48 3 5 mph 1024.7mb 60f 60f
10:42 3
mph
1024.8mb 60f 60f
10:36 3
mph
1024.8mb 60f 60f
10:30 2 3 mph 1024.9mb 60f 60f
10:24 2 3 mph 1025mb 60f 60f
10:18 3
mph
1025.1mb 60f 60f
10:12 3
mph
1025.1mb 60f 59f
10:06 3
mph
1025.1mb 60f 60f
10:00 2
mph
1025mb 60f 60f
9:54 1 2 mph 1025mb 60f 60f
9:48 2
mph
1025mb 60f 60f
9:42 2
mph
1025mb 60f 60f
9:36 2
mph
1025mb 60f 60f
9:30 1 2 mph 1025mb 60f 60f
9:24 1 2 mph 1024.9mb 60f 60f
9:18 1 2 mph 1024.9mb 60f 60f
9:12 1 2 mph 1024.8mb 60f 60f
9:06 1 2 mph 1024.7mb 60f 61f
9:00 2 3 mph 1024.6mb 60f 60f
8:54 2 5 mph 1024.5mb 60f 61f
8:48 3 5 mph 1024.3mb 60f 60f
8:42 3 6 mph 1024.3mb 60f 60f
8:36 5 6 mph 1024.1mb 60f 59f
8:30 3
mph
1024.1mb 60f 59f
8:24 3 5 mph 1024mb 60f 59f
8:18 5 6 mph 1023.8mb 60f 58f
8:12 5
mph
1023.8mb 60f 58f
8:06 3 5 mph 1023.7mb 60f 58f
8:00 3 5 mph 1023.8mb 60f 57f
7:54 2 5 mph 1023.7mb 60f 57f
7:48 3 5 mph 1023.6mb 60f 57f
7:42 2 5 mph 1023.6mb 60f 57f
7:36 3 5 mph 1023.6mb 60f 56f
7:30 3 6 mph 1023.5mb 60f 56f
7:24 3 5 mph 1023.4mb 60f 56f
7:18 3 5 mph 1023.4mb 60f 55f
7:12 2 3 mph 1023.3mb 60f 55f
7:06 3 5 mph 1023.2mb 60f 55f
7:00 2 3 mph 1023.2mb 60f 55f
6:54 3 5 mph 1023.1mb 60f 55f
6:48 5
mph
1023.2mb 60f 55f
6:42 5
mph
1023.2mb 60f 55f
6:36 3 5 mph 1023.2mb 60f 55f
6:30 3 5 mph 1023.1mb 60f 54f
6:24 5 6 mph 1023mb 60f 54f
6:18 3 5 mph 1022.9mb 60f 55f
6:12 2
mph
1022.8mb 60f 55f
6:06  -  2 mph 1022.7mb 60f 55f
6:00 2 3 mph 1022.7mb 60f 54f
5:54 3 5 mph 1022.6mb 60f 54f
5:48 3
mph
1022.6mb 60f 54f
5:42 2 3 mph 1022.6mb - 54f
5:36 3 5 mph 1022.5mb - 54f
5:30 2 3 mph 1022.5mb 60f 54f
5:24 2 3 mph 1022.5mb 60f 54f
5:18 3 6 mph 1022.4mb 60f 54f
5:12 3 5 mph 1022.3mb 60f 54f
5:06 3 5 mph 1022.2mb 60f 54f
5:00 5
mph
1022.2mb 60f 54f
4:54 3
mph
1022.2mb 60f 54f
4:48 3 5 mph 1022.1mb 60f 54f
4:42 5 7 mph 1022mb 60f 54f
4:36 6 7 mph 1021.9mb 60f 54f
4:30 6
mph
1021.8mb 60f 53f
4:24 3 5 mph 1021.6mb 60f 54f
4:18 1 3 mph 1021.6mb 60f 54f
4:12 3 5 mph 1021.6mb 60f 54f
4:06 5 6 mph 1021.5mb 60f 54f
4:00 2 3 mph 1021.5mb 60f 54f
3:54 2 3 mph 1021.5mb 60f 54f
3:48 3 5 mph 1021.6mb 60f 54f
3:42 5
mph
1021.7mb 60f 54f
3:36 2 3 mph 1021.7mb 60f 54f
3:30 1 2 mph 1021.6mb 60f 54f
3:24 2 3 mph 1021.6mb 60f 54f
3:18 3 5 mph 1021.7mb 60f 54f
3:12 3 5 mph 1021.6mb 60f 54f
3:06 2 3 mph 1021.6mb 60f 54f
3:00 2 5 mph 1021.7mb 60f 54f
2:54 2 3 mph 1021.7mb 60f 54f
2:48 2 3 mph 1021.7mb 60f 54f
2:42 2 3 mph 1021.7mb 60f 54f
2:36 2 3 mph 1021.7mb 60f 54f
2:30 2 3 mph 1021.7mb 60f 54f
2:24 1 2 mph 1021.8mb 60f 55f
2:18 1 2 mph 1021.8mb 60f 55f
2:12 2 3 mph 1021.8mb 60f 55f
2:06 1 3 mph 1021.8mb 60f 55f
2:00 3 5 mph 1021.7mb 60f 54f
1:54 3 7 mph 1021.7mb 60f 55f
1:48 6 8 mph 1021.6mb 60f 55f
1:42 5 7 mph 1021.5mb 60f 55f
1:36 6 7 mph 1021.5mb 60f 55f
1:30 5 6 mph 1021.5mb 60f 54f
1:24 3 5 mph 1021.6mb 60f 54f
1:18 2 3 mph 1021.6mb 60f 55f
1:12 2 5 mph 1021.7mb 60f 55f
1:06 3 5 mph 1021.6mb 60f 55f
1:00 2 5 mph 1021.6mb 60f 55f
12:54 5 6 mph 1021.6mb 60f 55f
12:48 2 6 mph 1021.7mb 60f 54f
12:42 5 7 mph 1021.6mb 60f 55f
12:36 6 7 mph 1021.7mb 60f 55f
12:30 6 8 mph 1021.7mb 60f 55f
12:24 7 8 mph 1021.6mb 60f 55f
12:18 7 8 mph 1021.6mb 60f 55f
12:12 7
mph
1021.6mb 60f 55f
12:06 7
mph
1021.6mb 60f 55f
12:00 6 7 mph 1021.7mb 60f 55f
mié 12/07 11:54 6 7 mph 1021.6mb 60f 56f
11:48 7
mph
1021.6mb 60f 56f
11:42 6 7 mph 1021.6mb 60f 56f
11:36 6 7 mph 1021.6mb 60f 56f
11:30 6 7 mph 1021.6mb 60f 55f
11:24 7
mph
1021.6mb 60f 55f
11:18 7
mph
1021.5mb 60f 55f
11:12 7
mph
1021.5mb 60f 55f
11:06 7
mph
1021.4mb 60f 56f
11:00 7
mph
1021.4mb 60f 56f
10:54 6
mph
1021.4mb 60f 56f
10:48 5 6 mph 1021.5mb 60f 56f
10:42 5 6 mph 1021.5mb 60f -
10:36 5
mph
1021.4mb 60f -
10:30 5
mph
1021.4mb 60f 56f
10:24 3 5 mph 1021.4mb 60f 56f
10:18 1 2 mph 1021.4mb 60f 56f
10:12  -  2 mph 1021.5mb 60f 56f
10:06 2
mph
1021.5mb 60f 56f
10:00  -  1 mph 1021.5mb 60f 56f
9:54 1
mph
1021.5mb 60f 56f
9:48 2
mph
1021.5mb 60f 56f
9:42 2
mph
1021.5mb 60f -
9:36 2
mph
1021.4mb 60f -
9:30 2 3 mph 1021.3mb 60f 56f
9:24 2 5 mph 1021.3mb 60f 56f
9:18 3 5 mph 1021.2mb 60f 56f
9:12 5
mph
1021.2mb 60f 56f
9:06 3
mph
1021.1mb 60f 56f
9:00 2 3 mph 1021mb 60f 57f
8:54 1 2 mph 1021mb 60f 57f
8:48 2 3 mph 1021.1mb 60f 57f
8:42 2
mph
1021.1mb 60f 57f
8:36 2
mph
1020.9mb 60f 57f
8:30 2 3 mph 1020.8mb 60f 57f
8:24 1 2 mph 1021mb 60f 57f
8:18 2 3 mph 1021mb 60f 57f
8:12 2
mph
1020.9mb 60f 57f
8:06 2
mph
1020.9mb 60f 57f
8:00  -  1 mph 1020.9mb 60f 57f
7:54  -  1 mph 1020.9mb 60f 58f
7:48  -  1 mph 1020.8mb 60f 58f
7:42  -  2 mph 1020.8mb 60f 58f
7:36 2 5 mph 1020.7mb 60f 58f
7:30 5
mph
1020.6mb 60f 57f
7:24 2 3 mph 1020.6mb 60f 58f
7:18 2
mph
1020.7mb 60f 58f
7:12 1 2 mph 1020.6mb 60f 58f
7:06 1 2 mph 1020.5mb 60f 58f
7:00  -  1 mph 1020.4mb 60f 58f
6:54  -  1 mph 1020.4mb 60f 59f
6:48  -  1 mph 1020.4mb 60f 59f
6:42  -  2 mph 1020.4mb 60f 59f
6:36 1 2 mph 1020.4mb 60f 59f
6:30 1 2 mph 1020.2mb 60f 59f
6:24 3
mph
1020.3mb 60f 58f
6:18 2 3 mph 1020.3mb 60f 59f
6:12 3 5 mph 1020.2mb 60f 58f
6:06 3 5 mph 1020.2mb 60f 58f
6:00 5 6 mph 1020.2mb 60f 58f
5:54 6 7 mph 1020.2mb 60f 58f
5:48 6 7 mph 1020mb 60f 58f
5:42 6 7 mph 1019.9mb 60f 58f
5:36 6 7 mph 1019.9mb 60f 58f
5:30 6 8 mph 1019.8mb 60f 58f
5:24 7 8 mph 1019.8mb 61f 58f
5:18 8 9 mph - - -
5:12 9 10 mph 1019.7mb 61f 58f
5:06 9 10 mph 1019.7mb 61f 58f
5:00 9
mph
1019.7mb 60f 58f
4:54 9 10 mph 1019.6mb 60f 58f
4:48 9 10 mph 1019.5mb 60f 58f
4:42 9 10 mph 1019.4mb 60f 58f
4:36 9 11 mph 1019.3mb 60f 58f
4:30 9 10 mph 1019.3mb 60f 58f
4:24 10
mph
1019.3mb 60f 58f
4:18 9 11 mph - - -
4:12 9 10 mph 1019.3mb 60f 59f
4:06 10 11 mph 1019.2mb 60f 58f
4:00 11 13 mph 1019.4mb 60f 58f
3:54 11 13 mph 1019.4mb 60f 59f
3:48 10 11 mph - - -
3:42 10 11 mph 1019.2mb 60f 59f
3:36 10 13 mph 1019.2mb 60f 59f
3:30 10 11 mph 1019.2mb 60f 59f
3:24 9 10 mph 1019.1mb 60f 59f
3:18 9
mph
1018.9mb 60f 59f
3:12 9
mph
1018.9mb 60f 59f
3:06 8 9 mph 1018.9mb 60f 59f
3:00 7 8 mph 1018.9mb 60f 59f
2:54 8 9 mph 1018.9mb 60f 59f
2:48 7 8 mph - - -
2:42 8
mph
1018.8mb 60f 59f
2:36 7 8 mph 1018.8mb 60f 59f
2:30 8
mph
1018.8mb 60f 59f
2:24 7 8 mph 1018.8mb 60f 59f
2:18 8 9 mph 1018.8mb 60f 59f
2:12 8 9 mph 1018.9mb 60f 59f
2:06 8 9 mph 1018.9mb 60f 60f
2:00 7 8 mph 1018.8mb 60f 60f
1:54 7 8 mph 1018.7mb 60f 60f
1:48 7 8 mph - - -
1:42 8
mph
1018.8mb 60f 59f
1:36 8
mph
1018.8mb 60f 60f
1:30 7 9 mph 1018.8mb 60f 60f
1:24 8 9 mph 1018.8mb 60f 60f
1:18 8 9 mph 1018.8mb 60f 60f
1:12 8 9 mph 1018.8mb 60f 60f
1:06 8 9 mph 1018.8mb 60f 60f
1:00 8 9 mph 1018.7mb 60f 60f
12:54 8 9 mph 1018.7mb 60f 60f
12:48 7 8 mph 1018.6mb 60f 60f
12:42 6 7 mph 1018.7mb 60f 60f
12:36 6 7 mph 1018.8mb 60f 60f
12:30 6 7 mph 1018.8mb 60f 60f
12:24 7
mph
1018.8mb 60f 60f
12:18 6 8 mph 1018.8mb 60f 60f
12:12 7 8 mph 1019mb 60f 59f
12:06 6 7 mph 1019.1mb 60f 60f
12:00 6
mph
1019.1mb 60f 60f
11:54 5 6 mph 1019.1mb 60f 60f
11:48 6
mph
1019.2mb 60f 60f
11:42 6 7 mph 1019.3mb 60f 60f
11:36 7
mph
1019.4mb 60f 59f
11:30 6 7 mph 1019.4mb 60f 59f
11:24 5 6 mph 1019.6mb 60f 60f
11:18 5
mph
1019.8mb 60f 60f
11:12 3 5 mph 1019.9mb 59f 60f
11:06 5 6 mph 1020mb 59f 60f
11:00 1 2 mph 1019.9mb 60f 62f
10:54  -  5 mph 1019.9mb 59f 63f
10:48 5 8 mph 1019.9mb 59f 61f
10:42 3 6 mph 1019.8mb 59f 60f
10:36 5 7 mph 1019.9mb 59f 60f
10:30 6 9 mph 1019.8mb 59f 60f
10:24 6 9 mph 1019.8mb 59f 59f
10:18 9 11 mph 1019.7mb 59f 59f
10:12 5 10 mph 1019.8mb 59f 59f
10:06 6 9 mph 1019.8mb 59f 59f
10:00 6 7 mph 1019.9mb 59f 58f
9:54 7 8 mph 1020mb 59f 58f
9:48 3 7 mph 1020mb 59f 59f
9:42 6 8 mph 1020mb 59f 58f
9:36 7 9 mph 1019.9mb 59f 58f
9:30 6 8 mph 1019.9mb 59f 59f
9:24 6 8 mph 1019.9mb 59f 58f
9:18 5 7 mph 1019.8mb 59f 59f
9:12 5 6 mph 1019.8mb 59f 58f
9:06 5 8 mph 1019.6mb 59f 58f
9:00 6 8 mph 1019.5mb 59f 58f
8:54 5 7 mph 1019.5mb 59f 58f
8:48 5 7 mph 1019.4mb 59f 58f
8:42 5 7 mph 1019.3mb 59f 58f
8:36 3 6 mph 1019.1mb 59f 57f
8:30 5 8 mph 1019mb 59f 57f
8:24 7 9 mph 1019mb 59f 57f
8:18 6 8 mph 1018.9mb 59f 57f
8:12 6 8 mph 1018.8mb 59f 56f
8:06 3 5 mph 1018.7mb 59f 57f
8:00 2 7 mph 1018.6mb 59f 57f
7:54 5 8 mph 1018.7mb 59f 57f
7:48 6 9 mph 1018.6mb 59f 56f
7:42 7 8 mph 1018.5mb 59f 56f
7:36 6 8 mph 1018.5mb 59f 56f
7:30 7 9 mph 1018.4mb 59f 56f
7:24 7 10 mph 1018.4mb 59f 55f
7:18 8 10 mph 1018.2mb 59f -
7:12 9 10 mph 1018.2mb 59f 55f
7:06 8 10 mph 1018.1mb 59f 55f
7:00 8 9 mph 1018.1mb 59f 55f
6:54 8 10 mph 1018mb 59f 55f
6:48 7 10 mph 1018mb 60f 55f
6:42 7 10 mph 1018mb 60f 55f
6:36 9 10 mph 1017.9mb 60f 55f
6:30 8 10 mph 1017.8mb 60f 55f
6:24 8 10 mph 1017.8mb 60f 55f
6:18 7 10 mph 1017.8mb 60f -
6:12 8 14 mph 1017.7mb 60f 55f
6:06 10 13 mph 1017.6mb 60f 55f
6:00 10 13 mph 1017.5mb 60f 55f
5:54 10 14 mph 1017.5mb 60f 54f
5:48 9 11 mph 1017.4mb 60f 54f
5:42 8 9 mph 1017.4mb 60f 54f
5:36 7 9 mph 1017.3mb 60f 54f
5:30 7 10 mph 1017.4mb 60f 54f
5:24 7 9 mph 1017.4mb 60f 54f
5:18 7 9 mph 1017.3mb 60f 54f
5:12 7 8 mph 1017.3mb 60f 55f
5:06 8 10 mph 1017.2mb 60f 55f
5:00 8 11 mph 1017.2mb 60f 55f
4:54 8 10 mph 1017.2mb 60f 55f
4:48 9 11 mph 1017.2mb 60f 55f
4:42 8 10 mph 1017.1mb 60f 55f
4:36 8 10 mph 1017.1mb 60f 55f
4:30 9 10 mph 1017mb 60f 55f
4:24 7 9 mph 1017.1mb 60f 55f
4:18 7 9 mph 1017.1mb 60f 55f
4:12 7 9 mph 1017mb 60f 55f
4:06 7 9 mph 1016.9mb 60f 55f
4:00 9 10 mph 1016.9mb 60f 55f
3:54 9 10 mph 1016.9mb 60f 55f
3:48 8 10 mph 1016.9mb 60f 55f
3:42 8 9 mph 1016.9mb 60f 55f
3:36 8 9 mph 1016.9mb 60f 55f
3:30 6 9 mph 1016.9mb 60f 55f
3:24 7 8 mph 1016.9mb 60f 55f
3:18 6 9 mph 1016.9mb 60f 54f
3:12 8 10 mph 1016.9mb 60f 55f
3:06 8 9 mph 1017mb 60f 54f
3:00 7 8 mph 1016.9mb 60f 54f
2:54 7 8 mph 1017mb 60f 54f
2:48 6 8 mph 1017mb 60f 54f
2:42 7 9 mph 1017mb 60f 54f
2:36 8 9 mph 1017mb 60f 54f
2:30 6 9 mph 1017mb 60f 54f
2:24 7 8 mph 1017mb 60f 54f
2:18 6 7 mph 1017mb 60f 54f
2:12 6 7 mph 1017mb 60f 55f
2:06 6 7 mph 1017mb 60f 55f
2:00 6 8 mph 1017mb 60f 55f
1:54 6 8 mph 1017mb 60f 55f
1:48 7 9 mph 1017mb 60f 55f
1:42 7 9 mph 1016.8mb 60f 54f
1:36 8 9 mph 1016.7mb 60f 54f
1:30 7 9 mph 1016.7mb 60f 54f
1:24 7 8 mph 1016.7mb 60f 54f
1:18 7 8 mph 1016.7mb 60f 55f
1:12 6 8 mph 1016.7mb 60f 54f
1:06 6 7 mph 1016.7mb 60f 54f
1:00 6 7 mph 1016.7mb 60f 55f
12:54 6 7 mph 1016.6mb 60f 55f
12:48 6 7 mph 1016.6mb 60f 55f
12:42 6 7 mph 1016.6mb 60f 55f
12:36 6 8 mph 1016.6mb 60f 55f
12:30 8
mph
1016.7mb 60f 55f
12:24 7 8 mph 1016.7mb 60f 55f
12:18 7 8 mph 1016.6mb 60f 55f
12:12 7 8 mph 1016.6mb 60f 55f
12:06 7
mph
1016.6mb 60f 55f
12:00 6 7 mph 1016.6mb 60f 55f
mar 12/06 11:54 6 7 mph 1016.7mb 60f 55f
11:48 6 7 mph 1016.7mb 60f 55f
11:42 6 7 mph 1016.8mb 60f 55f
11:36 7
mph
1016.9mb 60f 55f
11:30 6 7 mph 1016.9mb 60f 56f
11:24 6 7 mph 1016.9mb 60f 56f
11:18 6 7 mph 1016.9mb 60f 56f
11:12 6 7 mph 1016.9mb 60f 56f
11:06 6
mph
1016.9mb 60f 56f
11:00 6 7 mph 1016.9mb 60f 56f
10:54 6 7 mph 1016.8mb 60f 56f
10:48 6 7 mph 1016.7mb 60f 56f
10:42 6
mph
1016.7mb 60f 56f
10:36 5 6 mph 1016.7mb 60f 56f
10:30 5 6 mph 1016.7mb 60f 56f
10:24 3 6 mph 1016.7mb 60f 56f
10:18 5 6 mph 1016.7mb 60f 56f
10:12 6
mph
1016.6mb 60f 56f
10:06 5 6 mph 1016.6mb 60f 56f
10:00 5 6 mph 1016.6mb 60f -
9:54 5 6 mph 1016.5mb 60f 56f
9:48 5 6 mph 1016.4mb 60f 57f
9:42 3 5 mph 1016.4mb 60f 57f
9:36 3 5 mph 1016.4mb 60f 57f
9:30 3 5 mph 1016.3mb 60f 57f
9:24 3 5 mph 1016.3mb 60f 57f
9:18 5 6 mph 1016.3mb 60f 57f
9:12 5 6 mph 1016.2mb 60f 57f
9:06 5 6 mph 1016.2mb 60f 57f
9:00 5 6 mph 1016.2mb 60f 57f
8:54 3 5 mph 1016.2mb 60f 57f
8:48 3 5 mph 1016.1mb 60f 57f
8:42 3 6 mph 1016mb 60f 57f
8:36 5 6 mph 1016mb 60f 57f
8:30 5
mph
1015.9mb 60f 57f
8:24 5 6 mph 1015.8mb 60f 57f
8:18 5
mph
1015.8mb 60f 57f
8:12 3 5 mph 1015.7mb 60f 57f
8:06 2 5 mph 1015.7mb 60f 57f
8:00 2 3 mph 1015.6mb 60f 57f
7:54 1 3 mph 1015.6mb 60f 57f
7:48 2 3 mph 1015.6mb 60f 58f
7:42 2 3 mph 1015.7mb 60f 58f
7:36 2 3 mph 1015.7mb 60f 58f
7:30 3
mph
1015.6mb 60f 58f
7:24 3 6 mph 1015.5mb 60f 58f
7:18 6 7 mph 1015.5mb 60f 58f
7:12 7 9 mph 1015.5mb 60f 58f
7:06 8 9 mph 1015.5mb 60f 58f
7:00 8 10 mph 1015.6mb 61f 58f
6:54 9 10 mph 1015.5mb 61f 58f
6:48 9 10 mph 1015.4mb 61f 58f
6:30 11 13 mph 1015.4mb 61f 58f
6:24 10 11 mph 1015.5mb 61f 58f
6:18 10 13 mph 1015.4mb 61f 58f
6:12 11 13 mph 1015.4mb 60f 58f
6:06 11 13 mph 1015.3mb 60f 58f
6:00 11 13 mph 1015.4mb 61f 58f
5:54 11 13 mph 1015.4mb 61f 58f
5:48 13
mph
- - -
4:54 10 11 mph 1015.1mb 61f 59f
4:48 10 11 mph - - -
4:30 10 11 mph 1015mb 61f 59f
4:24 10 11 mph 1015mb 61f 58f
4:18 10 11 mph 1014.9mb 61f 59f
4:12 10 11 mph 1014.8mb 61f 58f
4:06 10 11 mph 1014.9mb 60f 59f
4:00 11
mph
1014.9mb 60f 58f
3:54 9 11 mph 1014.9mb 60f 59f
3:48 10 11 mph - - -
3:42 10 11 mph 1014.9mb 60f 59f
3:36 10 13 mph 1014.8mb 60f 59f
3:30 10 11 mph 1014.8mb 60f 59f
3:24 10 11 mph 1014.7mb 60f 59f
3:18 9 10 mph - - -
3:12 9 11 mph 1014.6mb 60f 59f
3:06 10 11 mph 1014.5mb 60f 59f
3:00 10 11 mph 1014.5mb 60f -
2:54 9 11 mph 1014.6mb 60f 60f
2:48 10 11 mph - - -
2:42 10 11 mph 1014.7mb 60f 59f
2:36 10
mph
1014.7mb 60f 60f
2:30 9 10 mph 1014.7mb 60f 59f
2:24 9 10 mph 1014.6mb 60f 60f
2:18 9 10 mph 1014.6mb 60f 60f
2:12 8 9 mph 1014.6mb 60f 60f
2:06 8 9 mph 1014.5mb 60f 60f
2:00 8 9 mph 1014.6mb 60f -
1:54 7 8 mph 1014.5mb 60f 60f
1:48 7 8 mph - - -
1:42 7 8 mph 1014.5mb 60f 60f
1:36 7 8 mph 1014.6mb 60f 60f
1:30 7
mph
1014.6mb 60f 60f
1:24 6 7 mph 1014.6mb 60f 60f
1:18 7
mph
1014.6mb 60f 60f
1:12 7
mph
1014.6mb 60f 60f
1:06 7
mph
1014.7mb 60f 60f
1:00 6 7 mph 1014.7mb 60f 60f
12:54 6 7 mph 1014.8mb 60f 60f
12:48 7
mph
1014.9mb 60f 60f
12:42 6 7 mph 1015mb 60f 60f
12:36 6 7 mph 1015.1mb 60f 60f
12:30 6 7 mph 1015.2mb 60f 60f
12:24 7
mph
1015.2mb 60f 60f
12:18 7
mph
1015.3mb 60f 60f
12:12 7 8 mph 1015.3mb 60f 60f
12:06 7 8 mph 1015.4mb 60f 60f
12:00 7 8 mph 1015.5mb 60f 60f
11:54 7 8 mph 1015.6mb 60f 60f
11:48 7 8 mph 1015.7mb 60f 60f
11:42 7
mph
1015.7mb 60f 60f
11:36 6 7 mph 1015.8mb 60f 60f
11:30 6 7 mph 1015.9mb 60f 60f
11:24 6 7 mph 1016mb 60f 60f
11:18 6
mph
1016.1mb 60f 60f
11:12 6
mph
1016.2mb 60f 60f
11:06 6
mph
1016.2mb 60f 60f
11:00 6
mph
1016.3mb 60f 60f
10:54 6
mph
1016.4mb 60f 60f
10:48 6
mph
1016.5mb 60f 60f
10:30 5 6 mph 1016.6mb 60f 60f
10:24 5
mph
1016.7mb 60f 60f
10:18 3 5 mph 1016.7mb 60f 60f
10:12 3
mph
1016.8mb 60f 60f
10:06 3
mph
1016.7mb 59f 60f
10:00 3
mph
1016.8mb 59f 60f
9:54 3 6 mph 1016.8mb 59f 60f
9:48 3 5 mph 1016.8mb 59f 60f
9:30 2 6 mph 1016.9mb 59f 60f
9:24 3 6 mph 1016.8mb 59f 60f
9:18 5
mph
1016.8mb 59f 60f
9:12 2 5 mph 1016.7mb 59f 60f
9:06 2 5 mph 1016.6mb 59f 60f
9:00 5 6 mph 1016.5mb 59f 59f
8:54 5 6 mph 1016.4mb 59f 60f
8:48 3 5 mph 1016.4mb 59f 60f
8:42 3 5 mph 1016.4mb 59f 59f
8:36 3 5 mph 1016.3mb 59f 59f
8:30 3 5 mph - - -
8:24 3 5 mph 1016.3mb 59f 59f
8:18 3 5 mph 1016.2mb 59f 58f
8:12 3 5 mph 1016.2mb 59f 58f
8:06 2 5 mph 1016.1mb 59f 58f
8:00 3 5 mph 1016.2mb 59f 58f
7:54 2 3 mph 1016.1mb 60f 57f
7:48 3 5 mph 1016.2mb 60f 57f
7:42 3 6 mph 1016.1mb 60f 57f
7:36 6 7 mph 1016mb 60f 57f
7:30 6 7 mph 1016mb 60f 57f
7:24 6 7 mph 1015.8mb 60f 56f
7:18 6 7 mph 1015.8mb 60f 56f
7:12 6 7 mph 1015.7mb 60f 56f
7:06 7
mph
1015.7mb 60f 56f
7:00 6 7 mph 1015.6mb 60f 56f
6:54 6 7 mph 1015.6mb 60f 56f
6:48 6 7 mph 1015.5mb 60f 56f
6:42 7
mph
1015.5mb 60f 56f
6:36 6 7 mph 1015.5mb 60f 56f
6:30 6 7 mph 1015.4mb 60f 56f
6:24 7
mph
1015.3mb 60f 56f
6:18 6 7 mph 1015.3mb 60f 56f
6:12 5 6 mph 1015.3mb 60f 56f
6:06 6 7 mph 1015.3mb 60f 56f
6:00 6 7 mph 1015.3mb 60f 56f
5:54 5 7 mph 1015.2mb 60f 56f
5:48 6 7 mph 1015.2mb 60f 56f
5:42 5 7 mph 1015mb 60f 56f
5:36 6 7 mph 1014.8mb 60f 56f
5:30 6 8 mph 1014.8mb 60f 56f
5:24 6 7 mph 1014.9mb 60f 56f
5:18 5 6 mph 1014.8mb 60f 56f
5:12 5
mph
1014.8mb 60f 56f